Time;durP1;ratioP1;P1;durP2;ratioP2;P2;SDS_P1;SDS_P2;PMS_P1;PMS_P2;Temp;Humidity;BMP_temperature;BMP_pressure;BME280_temperature;BME280_humidity;BME280_pressure;Samples;Min_cycle;Max_cycle;Signal;HPM_P1;HPM_P2
2023/01/03 00:02:09;;;;;;;0.77;0.77;;;;;;;6.24;76.09;96444.94;5111947;28;20428;-61
2023/01/03 00:04:37;;;;;;;1.43;0.70;;;;;;;6.26;77.19;96452.59;5111883;28;20431;-60
2023/01/03 00:07:11;;;;;;;0.67;0.67;;;;;;;6.25;77.21;96456.25;5111885;28;20416;-59
2023/01/03 00:09:39;;;;;;;6.27;0.63;;;;;;;6.19;76.79;96449.22;5112034;28;20434;-59
2023/01/03 00:12:24;;;;;;;1.17;1.07;;;;;;;6.26;76.74;96453.41;5111921;28;20428;-59
2023/01/03 00:14:58;;;;;;;0.90;0.80;;;;;;;6.16;76.48;96458.34;5112127;28;20422;-60
2023/01/03 00:17:28;;;;;;;1.77;0.67;;;;;;;5.71;75.78;96425.22;5112047;28;20457;-59
2023/01/03 00:19:56;;;;;;;0.30;0.20;;;;;;;5.42;76.63;96383.69;5111675;28;20559;-60
2023/01/03 00:22:24;;;;;;;11.13;1.00;;;;;;;5.89;75.64;96464.81;5112051;28;20432;-60
2023/01/03 00:24:55;;;;;;;0.80;0.80;;;;;;;6.05;75.49;96461.66;5111572;28;20526;-60
2023/01/03 00:27:26;;;;;;;0.93;0.93;;;;;;;5.92;75.54;96432.78;5111542;28;20427;-60
2023/01/03 00:29:55;;;;;;;1.60;0.87;;;;;;;6.02;75.09;96454.19;5110937;28;20464;-59
2023/01/03 00:32:23;;;;;;;0.60;0.50;;;;;;;6.02;76.09;96451.53;5110975;28;20460;-59
2023/01/03 00:34:51;;;;;;;0.97;0.67;;;;;;;6.00;78.02;96448.31;5111873;28;20473;-59
2023/01/03 00:37:20;;;;;;;0.40;0.40;;;;;;;6.00;76.91;96445.69;5111712;28;20420;-59
2023/01/03 00:39:48;;;;;;;17.57;1.90;;;;;;;6.00;76.32;96450.16;5111212;28;20474;-60
2023/01/03 00:42:16;;;;;;;7.20;1.60;;;;;;;5.84;75.33;96442.75;5111224;28;20434;-60
2023/01/03 00:44:46;;;;;;;2.80;0.80;;;;;;;5.45;75.95;96394.63;5111220;28;20456;-60
2023/01/03 00:47:14;;;;;;;3.23;3.03;;;;;;;5.79;75.76;96444.19;5111560;28;20864;-60
2023/01/03 00:49:42;;;;;;;2.00;0.97;;;;;;;5.90;76.99;96447.19;5111276;28;20467;-60
2023/01/03 00:52:11;;;;;;;1.50;1.40;;;;;;;6.04;75.69;96444.28;5111807;28;20454;-60
2023/01/03 00:54:39;;;;;;;4.33;0.80;;;;;;;5.89;75.62;96438.50;5113384;28;20796;-60
2023/01/03 00:57:07;;;;;;;3.20;0.57;;;;;;;6.00;76.49;96440.44;5115821;28;20909;-60
2023/01/03 00:59:36;;;;;;;2.43;2.23;;;;;;;5.80;75.02;96423.94;5115622;28;20459;-60
2023/01/03 01:02:05;;;;;;;1.50;0.63;;;;;;;5.53;75.15;96385.69;5115357;28;20431;-60
2023/01/03 01:04:34;;;;;;;0.50;0.50;;;;;;;5.70;77.19;96392.84;5115275;28;20428;-60
2023/01/03 01:07:04;;;;;;;1.80;1.73;;;;;;;5.91;76.72;96428.56;5115557;28;20431;-60
2023/01/03 01:09:34;;;;;;;0.50;0.50;;;;;;;5.85;76.13;96433.84;5115266;28;20481;-60
2023/01/03 01:12:03;;;;;;;0.90;0.90;;;;;;;5.85;77.48;96421.50;5115107;28;20420;-60
2023/01/03 01:14:32;;;;;;;2.37;1.00;;;;;;;5.84;75.92;96433.03;5115459;28;20428;-60
2023/01/03 01:17:02;;;;;;;0.83;0.83;;;;;;;5.83;75.52;96427.97;5114955;28;20428;-60
2023/01/03 01:19:35;;;;;;;0.73;0.53;;;;;;;5.65;75.96;96400.56;5115514;28;20817;-60
2023/01/03 01:22:04;;;;;;;0.40;0.40;;;;;;;5.80;76.59;96400.25;5114782;28;20486;-60
2023/01/03 01:24:33;;;;;;;0.50;0.50;;;;;;;5.85;75.41;96428.59;5115143;28;20527;-60
2023/01/03 01:27:01;;;;;;;0.67;0.67;;;;;;;5.84;75.78;96426.97;5115215;28;20436;-60
2023/01/03 01:29:29;;;;;;;0.40;0.30;;;;;;;5.75;74.77;96427.22;5115058;28;20477;-60
2023/01/03 01:31:58;;;;;;;2.40;1.50;;;;;;;5.66;75.04;96414.53;5115218;28;20420;-60
2023/01/03 01:34:26;;;;;;;1.23;0.90;;;;;;;5.60;75.35;96420.63;5115214;28;20500;-60
2023/01/03 01:36:56;;;;;;;0.50;0.50;;;;;;;5.67;75.08;96424.81;5114872;28;20517;-60
2023/01/03 01:39:27;;;;;;;3.20;1.17;;;;;;;4.54;80.06;96422.00;5114741;28;20787;-60
2023/01/03 01:44:54;;;;;;;1.23;1.23;;;;;;;4.74;84.97;96438.53;5114721;28;20438;-60
2023/01/03 01:47:31;;;;;;;2.80;2.70;;;;;;;4.98;82.00;96424.72;5114741;28;20447;-60
2023/01/03 01:50:05;;;;;;;3.13;2.93;;;;;;;4.91;81.30;96428.38;5114308;28;20518;-60
2023/01/03 01:52:38;;;;;;;1.60;1.50;;;;;;;5.27;79.91;96427.84;5114489;28;20505;-60
2023/01/03 01:55:12;;;;;;;2.63;1.43;;;;;;;5.09;78.34;96389.94;5114368;28;20428;-60
2023/01/03 01:57:43;;;;;;;2.93;2.70;;;;;;;5.25;77.99;96422.00;5114012;28;20435;-60
2023/01/03 02:00:12;;;;;;;3.50;0.90;;;;;;;5.32;78.06;96404.38;5114638;28;20893;-60
2023/01/03 02:02:40;;;;;;;2.60;1.60;;;;;;;5.28;77.51;96405.81;5114308;28;20511;-60
2023/01/03 02:05:10;;;;;;;0.80;0.80;;;;;;;5.23;77.44;96397.75;5113886;28;20424;-60
2023/01/03 02:07:40;;;;;;;0.60;0.60;;;;;;;5.22;76.52;96401.41;5113413;28;20436;-60
2023/01/03 02:10:09;;;;;;;0.67;0.40;;;;;;;5.18;76.93;96414.16;5114074;28;20420;-60
2023/01/03 02:15:47;;;;;;;2.93;2.20;;;;;;;5.29;76.60;96396.94;5113868;28;20519;-60
2023/01/03 02:18:27;;;;;;;3.00;1.33;;;;;;;5.17;76.37;96404.66;5114017;28;20431;-60
2023/01/03 02:21:24;;;;;;;0.50;0.50;;;;;;;5.12;76.62;96402.66;5113812;28;20482;-60
2023/01/03 02:24:32;;;;;;;1.03;1.03;;;;;;;5.19;76.72;96401.84;5114045;28;20520;-60
2023/01/03 02:27:18;;;;;;;1.33;1.10;;;;;;;5.14;77.09;96395.38;5107578;28;20482;-60
2023/01/03 02:30:16;;;;;;;1.60;1.50;;;;;;;5.16;77.06;96394.38;5112681;28;20435;-60
2023/01/03 02:32:51;;;;;;;8.87;1.43;;;;;;;5.18;77.42;96379.19;5113629;28;20880;-60
2023/01/03 02:35:26;;;;;;;0.63;0.63;;;;;;;5.00;76.45;96372.81;5113539;28;20433;-60
2023/01/03 02:37:59;;;;;;;0.40;0.27;;;;;;;5.25;77.02;96400.97;5113455;28;20462;-60
2023/01/03 02:40:36;;;;;;;0.60;0.60;;;;;;;5.20;75.53;96403.44;5113406;28;20792;-60
2023/01/03 02:43:09;;;;;;;1.53;0.53;;;;;;;5.27;76.41;96386.63;5113875;28;20456;-60
2023/01/03 02:45:50;;;;;;;15.57;0.77;;;;;;;4.94;75.64;96362.31;5113412;28;20507;-60
2023/01/03 02:48:30;;;;;;;2.00;1.90;;;;;;;4.96;75.56;96378.66;5113338;28;20456;-61
2023/01/03 02:51:03;;;;;;;0.40;0.40;;;;;;;4.43;76.53;96364.88;5112988;28;20475;-60
2023/01/03 02:53:35;;;;;;;0.97;0.97;;;;;;;3.81;80.09;96366.16;5113433;28;20449;-60
2023/01/03 02:56:08;;;;;;;1.17;1.17;;;;;;;4.32;81.76;96397.81;5113271;28;20442;-60
2023/01/03 02:58:39;;;;;;;0.90;0.90;;;;;;;4.85;81.25;96410.84;5113013;28;20456;-60
2023/01/03 03:01:12;;;;;;;2.27;2.17;;;;;;;4.43;78.26;96352.56;5113366;28;21019;-60
2023/01/03 03:03:41;;;;;;;2.33;2.20;;;;;;;3.81;80.40;96363.53;5113003;28;20424;-60
2023/01/03 03:06:17;;;;;;;1.00;1.00;;;;;;;3.66;84.15;96402.25;5112924;28;20472;-60
2023/01/03 03:08:45;;;;;;;2.73;2.43;;;;;;;3.69;85.74;96414.94;5112462;28;20424;-60
2023/01/03 03:14:06;;;;;;;1.60;0.87;;;;;;;4.12;81.15;96411.97;5112648;28;20463;-60
2023/01/03 03:16:48;;;;;;;2.03;1.93;;;;;;;3.65;82.44;96416.34;5092440;28;20494;-60
2023/01/03 03:25:21;;;;;;;7.93;1.27;;;;;;;3.72;81.98;96417.16;5092533;28;20456;-60
2023/01/03 03:30:42;;;;;;;0.50;0.43;;;;;;;3.59;82.47;96374.41;5092449;28;20416;-60
2023/01/03 03:33:15;;;;;;;1.33;1.07;;;;;;;3.58;83.17;96417.34;5092064;28;20430;-60
2023/01/03 03:35:47;;;;;;;1.70;1.27;;;;;;;3.75;82.91;96419.38;5092579;28;20416;-60
2023/01/03 03:38:22;;;;;;;0.87;0.87;;;;;;;3.91;82.00;96425.25;5092316;28;20830;-60
2023/01/03 03:46:42;;;;;;;1.17;0.77;;;;;;;3.34;81.54;96405.56;5092070;28;20985;-60
2023/01/03 03:49:38;;;;;;;4.47;3.70;;;;;;;3.41;83.96;96367.13;5091571;28;20428;-60
2023/01/03 03:52:12;;;;;;;1.50;1.50;;;;;;;3.84;82.33;96423.41;5091638;28;20436;-60
2023/01/03 03:54:44;;;;;;;0.90;0.90;;;;;;;4.14;82.07;96416.00;5091722;28;20421;-61
2023/01/03 03:57:17;;;;;;;3.03;0.93;;;;;;;4.23;79.82;96422.63;5091944;28;20432;-60
2023/01/03 03:59:52;;;;;;;0.90;0.90;;;;;;;3.96;79.54;96394.00;5091750;28;20461;-60
2023/01/03 04:02:24;;;;;;;0.60;0.60;;;;;;;3.89;78.66;96364.34;5091885;28;20811;-60
2023/01/03 04:04:58;;;;;;;0.40;0.30;;;;;;;4.27;78.00;96409.94;5091803;28;20428;-60
2023/01/03 04:07:27;;;;;;;1.83;1.73;;;;;;;4.39;77.83;96410.94;5091991;28;20516;-60
2023/01/03 04:09:55;;;;;;;1.03;0.93;;;;;;;4.33;77.52;96391.53;5091613;28;20431;-60
2023/01/03 04:12:24;;;;;;;1.63;1.33;;;;;;;4.42;77.03;96413.16;5091716;28;20440;-60
2023/01/03 04:14:52;;;;;;;2.30;2.20;;;;;;;4.37;76.14;96418.22;5091401;28;20552;-60
2023/01/03 04:17:20;;;;;;;1.67;1.57;;;;;;;4.32;76.64;96418.81;5091329;28;20818;-60
2023/01/03 04:19:49;;;;;;;0.57;0.57;;;;;;;4.05;77.91;96417.19;5090875;28;20436;-60
2023/01/03 04:22:19;;;;;;;1.23;1.23;;;;;;;3.95;78.63;96416.00;5091000;28;20472;-60
2023/01/03 04:25:05;;;;;;;1.93;1.23;;;;;;;4.16;78.41;96415.78;5090962;28;20707;-60
2023/01/03 04:27:34;;;;;;;0.97;0.97;;;;;;;3.94;78.79;96401.25;5091372;28;20963;-60
2023/01/03 04:30:02;;;;;;;4.73;1.33;;;;;;;3.68;78.41;96384.50;5093648;28;20420;-60
2023/01/03 04:32:30;;;;;;;3.20;3.10;;;;;;;3.79;78.21;96394.38;5095427;28;20469;-60
2023/01/03 04:34:58;;;;;;;4.57;1.17;;;;;;;3.46;79.77;96418.94;5095489;28;20445;-60
2023/01/03 04:37:28;;;;;;;1.53;1.43;;;;;;;3.18;81.49;96426.91;5095589;28;20425;-60
2023/01/03 04:39:56;;;;;;;1.50;1.50;;;;;;;2.58;82.46;96345.69;5095398;28;20442;-60
2023/01/03 04:45:11;;;;;;;5.70;1.40;;;;;;;2.79;86.69;96426.72;5095939;28;20813;-60
2023/01/03 04:47:40;;;;;;;2.57;2.37;;;;;;;2.43;85.33;96346.59;5095414;28;20428;-60
2023/01/03 04:50:09;;;;;;;1.43;1.33;;;;;;;2.65;84.21;96373.50;5095038;28;20476;-60
2023/01/03 04:52:39;;;;;;;6.70;2.63;;;;;;;2.94;83.77;96415.09;5101996;28;20819;-60
2023/01/03 04:55:08;;;;;;;4.90;1.43;;;;;;;2.91;83.64;96433.81;5115477;28;20435;-60
2023/01/03 04:57:37;;;;;;;1.43;0.80;;;;;;;2.73;84.77;96417.84;5115587;28;20428;-60
2023/01/03 05:00:09;;;;;;;2.73;2.50;;;;;;;2.72;85.42;96438.97;5115532;28;20599;-61
2023/01/03 05:02:37;;;;;;;7.20;3.30;;;;;;;2.21;86.39;96357.34;5114967;28;20475;-61
2023/01/03 05:05:07;;;;;;;1.83;1.83;;;;;;;2.46;85.87;96403.78;5115461;28;20515;-60
2023/01/03 05:07:35;;;;;;;2.43;2.33;;;;;;;2.20;87.03;96387.91;5115204;28;20430;-60
2023/01/03 05:10:06;;;;;;;1.90;1.80;;;;;;;2.50;87.38;96440.84;5114505;28;20447;-61
2023/01/03 05:12:34;;;;;;;4.17;3.87;;;;;;;2.55;87.43;96444.50;5115531;28;20428;-60
2023/01/03 05:15:03;;;;;;;0.40;0.40;;;;;;;2.41;86.37;96398.31;5114114;28;20446;-60
2023/01/03 05:17:31;;;;;;;16.50;1.93;;;;;;;2.50;85.33;96388.53;5115119;28;20924;-60
2023/01/03 05:25:51;;;;;;;3.63;2.53;;;;;;;2.08;89.98;96435.69;5114667;28;20432;-60
2023/01/03 05:28:39;;;;;;;3.80;3.57;;;;;;;0.97;91.25;96250.03;5114264;28;20454;-60
2023/01/03 05:31:07;;;;;;;1.40;1.33;;;;;;;2.30;88.54;96445.13;5115399;28;20531;-60
2023/01/03 05:33:40;;;;;;;3.43;1.13;;;;;;;2.43;87.56;96453.88;5114679;28;20424;-61
2023/01/03 05:36:09;;;;;;;6.00;2.13;;;;;;;2.25;88.40;96437.84;5114721;28;20442;-60
2023/01/03 05:38:38;;;;;;;2.20;2.00;;;;;;;2.42;87.50;96456.69;5114818;28;20436;-60
2023/01/03 05:41:08;;;;;;;3.97;3.53;;;;;;;2.36;87.84;96462.69;5113093;28;20537;-60
2023/01/03 05:43:37;;;;;;;6.33;1.80;;;;;;;2.55;87.18;96457.56;5114451;28;20525;-60
2023/01/03 05:46:05;;;;;;;2.20;2.10;;;;;;;2.52;85.88;96465.84;5114310;28;20467;-61
2023/01/03 05:48:34;;;;;;;2.10;2.00;;;;;;;2.39;86.47;96467.53;5114352;28;20432;-61
2023/01/03 05:51:02;;;;;;;10.63;2.23;;;;;;;-0.54;84.46;96024.31;5113861;28;20910;-63
2023/01/03 05:53:34;;;;;;;2.77;2.37;;;;;;;2.32;85.75;96477.97;5114125;28;20932;-60
2023/01/03 05:56:05;;;;;;;11.43;3.03;;;;;;;2.34;86.42;96478.56;5114360;28;20420;-60
2023/01/03 05:58:34;;;;;;;6.53;2.27;;;;;;;2.00;87.17;96464.59;5114413;28;20846;-60
2023/01/03 06:01:08;;;;;;;9.43;6.27;;;;;;;1.98;89.29;96477.03;5113516;28;20463;-60
2023/01/03 06:03:38;;;;;;;4.30;4.10;;;;;;;2.17;88.14;96472.00;5113354;28;21023;-60
2023/01/03 06:06:09;;;;;;;3.43;2.33;;;;;;;2.16;88.16;96469.56;5113361;28;20531;-60
2023/01/03 06:08:37;;;;;;;2.07;1.70;;;;;;;2.27;86.96;96459.41;5114131;28;20431;-60
2023/01/03 06:11:06;;;;;;;16.53;3.43;;;;;;;2.11;87.54;96470.13;5114340;28;20435;-60
2023/01/03 06:13:36;;;;;;;5.83;4.07;;;;;;;2.14;88.56;96472.38;5114225;28;20495;-60
2023/01/03 06:18:52;;;;;;;2.53;2.40;;;;;;;2.03;90.78;96480.72;5113999;28;20412;-60
2023/01/03 06:21:20;;;;;;;12.70;5.13;;;;;;;2.20;90.56;96481.28;5113730;28;20981;-60
2023/01/03 06:23:48;;;;;;;0.80;0.80;;;;;;;2.23;90.55;96476.47;5114045;28;20541;-60
2023/01/03 06:26:18;;;;;;;11.23;2.33;;;;;;;2.23;91.68;96478.25;5114076;28;20529;-60
2023/01/03 06:28:50;;;;;;;2.20;2.10;;;;;;;2.16;92.29;96454.69;5113836;28;20488;-61
2023/01/03 06:31:22;;;;;;;1.23;1.13;;;;;;;2.18;91.20;96467.56;5113647;28;20439;-61
2023/01/03 06:33:50;;;;;;;1.23;1.13;;;;;;;2.58;92.01;96475.50;5113998;28;20436;-61
2023/01/03 06:36:20;;;;;;;1.60;0.60;;;;;;;2.59;91.14;96478.94;5113778;28;20427;-61
2023/01/03 06:38:49;;;;;;;1.40;1.33;;;;;;;2.37;90.39;96432.91;5114012;28;20501;-61
2023/01/03 06:41:18;;;;;;;3.67;2.87;;;;;;;2.78;90.27;96480.09;5113753;28;20498;-61
2023/01/03 06:43:47;;;;;;;0.70;0.70;;;;;;;2.42;89.18;96386.88;5114082;28;20482;-62
2023/01/03 06:54:37;;;;;;;2.87;1.70;;;;;;;4.74;82.53;96472.69;5113154;28;20435;-61
2023/01/03 06:57:05;;;;;;;1.43;1.33;;;;;;;4.93;78.28;96468.41;5113532;28;20448;-61
2023/01/03 06:59:35;;;;;;;2.03;1.93;;;;;;;5.04;76.27;96473.00;5113188;28;20436;-59
2023/01/03 07:02:05;;;;;;;4.27;3.23;;;;;;;4.88;77.73;96471.63;5113189;28;20424;-59
2023/01/03 07:04:34;;;;;;;4.80;4.57;;;;;;;4.79;77.62;96472.06;5112726;28;20476;-59
2023/01/03 07:07:05;;;;;;;10.20;7.10;;;;;;;4.89;77.78;96428.59;5113015;28;20444;-61
2023/01/03 07:09:33;;;;;;;3.07;2.97;;;;;;;5.78;75.19;96470.69;5112901;28;20523;-60
2023/01/03 07:13:57;;;;;;;6.13;5.77;;;;;;;5.21;74.93;96479.47;5112886;28;20424;-60
2023/01/03 07:14:51;;;;;;;4.83;3.97;;;;;;;5.42;73.25;96479.16;5112641;28;20531;-60
2023/01/03 07:17:19;;;;;;;3.57;3.27;;;;;;;5.21;71.83;96476.03;5112321;28;20420;-59
2023/01/03 07:19:47;;;;;;;7.03;4.80;;;;;;;5.07;73.81;96493.63;5112456;28;20510;-59
2023/01/03 07:22:15;;;;;;;3.80;1.83;;;;;;;4.74;74.08;96492.88;5112647;28;20930;-60
2023/01/03 07:24:44;;;;;;;4.40;3.50;;;;;;;4.90;74.63;96495.09;5112457;28;20552;-59
2023/01/03 07:27:13;;;;;;;6.47;2.87;;;;;;;5.33;73.87;96495.38;5112643;28;20423;-60
2023/01/03 07:29:41;;;;;;;2.07;1.87;;;;;;;5.54;72.09;96481.97;5112458;28;20963;-60
2023/01/03 07:32:10;;;;;;;1.97;1.87;;;;;;;4.82;72.81;96419.94;5112510;28;20424;-59
2023/01/03 07:34:39;;;;;;;7.53;3.40;;;;;;;4.96;73.75;96466.16;5112365;28;20436;-59
2023/01/03 07:37:07;;;;;;;2.93;2.83;;;;;;;5.43;72.67;96477.34;5112345;28;20511;-59
2023/01/03 07:39:35;;;;;;;1.90;1.80;;;;;;;5.69;72.70;96485.91;5112686;28;20437;-59
2023/01/03 07:44:49;;;;;;;1.27;1.27;;;;;;;5.73;72.59;96483.69;5111861;28;20659;-59
2023/01/03 07:47:19;;;;;;;1.10;1.10;;;;;;;5.34;73.71;96487.28;5112451;28;20926;-60
2023/01/03 07:49:47;;;;;;;1.50;1.40;;;;;;;6.00;71.94;96477.28;5111971;28;20495;-60
2023/01/03 07:52:16;;;;;;;1.47;1.43;;;;;;;6.47;71.04;96489.09;5112106;28;20474;-60
2023/01/03 07:54:44;;;;;;;2.70;2.57;;;;;;;6.31;71.64;96485.16;5111106;28;20890;-61
2023/01/03 07:57:12;;;;;;;1.70;1.60;;;;;;;6.78;71.07;96485.59;5112020;28;20428;-60
2023/01/03 07:59:40;;;;;;;4.27;3.87;;;;;;;7.09;69.70;96476.78;5112265;28;20424;-60
2023/01/03 08:02:09;;;;;;;3.20;1.57;;;;;;;7.54;69.25;96470.97;5112032;28;20512;-60
2023/01/03 08:04:39;;;;;;;4.00;2.47;;;;;;;8.30;68.03;96470.38;5111076;28;20465;-60
2023/01/03 08:07:07;;;;;;;5.23;4.27;;;;;;;8.97;66.01;96468.25;5111785;28;20413;-60
2023/01/03 08:15:07;;;;;;;2.20;2.10;;;;;;;10.47;61.52;96456.38;5111785;28;20508;-60
2023/01/03 08:17:35;;;;;;;5.43;4.80;;;;;;;11.11;59.30;96455.75;5111702;28;20872;-61
2023/01/03 08:20:07;;;;;;;2.30;2.17;;;;;;;11.54;59.36;96440.91;5111629;28;20417;-61
2023/01/03 08:22:35;;;;;;;3.60;3.50;;;;;;;11.94;57.77;96438.78;5111643;28;20428;-61
2023/01/03 08:25:04;;;;;;;2.13;2.03;;;;;;;12.13;58.70;96444.50;5111767;28;20474;-63
2023/01/03 08:27:33;;;;;;;14.27;3.53;;;;;;;12.60;56.39;96438.28;5112147;28;20885;-64
2023/01/03 08:30:01;;;;;;;6.10;1.60;;;;;;;12.13;56.02;96362.94;5112069;28;20421;-65
2023/01/03 08:32:31;;;;;;;6.00;2.33;;;;;;;12.78;54.93;96421.13;5111930;28;20443;-67
2023/01/03 08:34:59;;;;;;;2.60;2.50;;;;;;;12.92;54.55;96432.16;5112225;28;20923;-70
2023/01/03 08:37:29;;;;;;;4.10;1.33;;;;;;;13.40;54.00;96431.13;5111696;28;20557;-71
2023/01/03 08:40:01;;;;;;;6.23;4.97;;;;;;;13.17;53.83;96433.13;5111799;28;20433;-72
2023/01/03 08:42:31;;;;;;;7.40;7.00;;;;;;;12.63;56.25;96427.16;5111710;28;20434;-74
2023/01/03 08:45:04;;;;;;;2.90;2.80;;;;;;;12.89;55.09;96417.50;5111821;28;20955;-71
2023/01/03 08:47:33;;;;;;;6.60;3.97;;;;;;;12.87;53.70;96362.94;5111737;28;20926;-70
2023/01/03 08:50:02;;;;;;;2.90;2.40;;;;;;;13.63;52.81;96420.03;5111476;28;20470;-68
2023/01/03 08:52:32;;;;;;;6.17;5.30;;;;;;;13.84;51.80;96411.81;5111626;28;20536;-67
2023/01/03 08:55:04;;;;;;;2.63;2.53;;;;;;;14.27;50.91;96391.91;5113277;28;20773;-67
2023/01/03 08:57:32;;;;;;;7.27;4.47;;;;;;;14.85;49.56;96400.47;5113004;28;20424;-65
2023/01/03 09:00:01;;;;;;;5.40;4.80;;;;;;;13.96;49.39;96358.28;5111856;28;20431;-64
2023/01/03 09:02:33;;;;;;;2.77;2.57;;;;;;;13.75;50.60;96404.59;5111862;28;20507;-65
2023/01/03 09:05:02;;;;;;;8.67;3.60;;;;;;;13.82;50.94;96387.31;5111708;28;20814;-65
2023/01/03 09:07:31;;;;;;;4.00;3.90;;;;;;;13.80;50.97;96386.78;5111245;28;20463;-63
2023/01/03 09:10:00;;;;;;;5.20;4.10;;;;;;;14.39;49.67;96367.69;5111134;28;20428;-62
2023/01/03 09:12:28;;;;;;;6.97;6.20;;;;;;;15.08;48.74;96376.63;5111480;28;20508;-61
2023/01/03 09:14:56;;;;;;;10.80;3.13;;;;;;;14.82;49.14;96375.09;5111724;28;20437;-60
2023/01/03 09:17:25;;;;;;;4.47;4.07;;;;;;;15.02;48.30;96331.53;5115115;28;20428;-60
2023/01/03 09:19:53;;;;;;;5.23;3.63;;;;;;;15.98;48.83;96365.84;5115068;28;20427;-59
2023/01/03 09:22:21;;;;;;;4.70;3.27;;;;;;;15.68;47.97;96356.94;5114769;28;20428;-59
2023/01/03 09:24:51;;;;;;;4.37;4.07;;;;;;;16.93;45.89;96348.19;5115036;28;20463;-59
2023/01/03 09:27:19;;;;;;;2.17;2.07;;;;;;;18.38;43.50;96348.16;5115068;28;20972;-58
2023/01/03 09:29:48;;;;;;;1.83;1.73;;;;;;;18.92;43.02;96336.00;5114875;28;20998;-58
2023/01/03 09:32:16;;;;;;;2.57;2.40;;;;;;;17.74;44.37;96335.44;5114786;28;20458;-58
2023/01/03 09:34:45;;;;;;;5.20;1.70;;;;;;;17.09;45.96;96278.09;5114960;28;20962;-58
2023/01/03 09:37:13;;;;;;;2.40;2.20;;;;;;;16.82;45.17;96304.69;5115137;28;20467;-58
2023/01/03 09:39:41;;;;;;;3.27;2.10;;;;;;;17.34;44.72;96260.09;5114627;28;20424;-58
2023/01/03 09:45:06;;;;;;;3.03;2.83;;;;;;;19.03;42.24;96311.31;5114980;28;20486;-59
2023/01/03 09:47:37;;;;;;;3.20;1.67;;;;;;;19.65;41.09;96300.94;5114740;28;20767;-59
2023/01/03 09:50:07;;;;;;;2.50;2.30;;;;;;;19.68;40.63;96294.97;5114515;28;20467;-59
2023/01/03 10:05:01;;;;;;;2.67;2.47;;;;;;;19.70;39.25;96260.47;5114292;28;20938;-60
2023/01/03 10:07:48;;;;;;;4.17;2.30;;;;;;;19.74;38.41;96253.38;5091211;28;20877;-59
2023/01/03 10:10:26;;;;;;;2.13;1.93;;;;;;;19.92;38.01;96222.81;5114498;28;20434;-59
2023/01/03 10:13:11;;;;;;;3.07;2.87;;;;;;;20.30;38.32;96242.09;5114156;28;20471;-59
2023/01/03 10:16:00;;;;;;;2.20;2.00;;;;;;;20.21;38.81;96239.31;5114179;28;20412;-59
2023/01/03 10:18:46;;;;;;;1.70;1.60;;;;;;;20.19;37.95;96238.03;5113744;28;20436;-60
2023/01/03 10:21:24;;;;;;;4.10;2.10;;;;;;;20.40;38.18;96235.66;5113294;28;20436;-60
2023/01/03 10:23:54;;;;;;;2.43;2.23;;;;;;;20.19;38.54;96195.75;5114015;28;20862;-61
2023/01/03 10:26:25;;;;;;;2.60;2.40;;;;;;;21.05;38.13;96223.06;5113548;28;20567;-60
2023/01/03 10:29:00;;;;;;;4.53;2.40;;;;;;;20.96;38.03;96230.34;5114329;28;20428;-60
2023/01/03 10:31:46;;;;;;;18.03;1.63;;;;;;;21.35;36.96;96170.97;5113903;28;20424;-60
2023/01/03 10:34:14;;;;;;;1.50;1.40;;;;;;;21.50;37.16;96210.19;5114026;28;20496;-61
2023/01/03 10:36:42;;;;;;;2.47;1.77;;;;;;;21.62;37.42;96206.84;5113634;28;20463;-60
2023/01/03 10:39:12;;;;;;;1.43;1.20;;;;;;;21.70;36.86;96160.19;5113687;28;20416;-61
2023/01/03 10:41:46;;;;;;;2.50;1.33;;;;;;;22.56;35.67;96198.63;5113947;28;20464;-61
2023/01/03 10:44:24;;;;;;;1.70;1.60;;;;;;;20.91;37.64;96120.00;5113640;28;20460;-61
2023/01/03 10:46:56;;;;;;;2.00;1.03;;;;;;;21.93;37.53;96192.09;5113980;28;20855;-61
2023/01/03 10:49:27;;;;;;;0.80;0.60;;;;;;;22.69;35.66;96155.16;5113218;28;20467;-60
2023/01/03 10:52:00;;;;;;;10.90;1.13;;;;;;;21.62;37.73;96117.81;5113680;28;20416;-60
2023/01/03 10:54:45;;;;;;;1.63;1.53;;;;;;;21.75;36.75;96160.03;5113411;28;20494;-60
2023/01/03 10:57:36;;;;;;;10.60;4.80;;;;;;;21.22;37.66;96157.66;5113762;28;20834;-60
2023/01/03 11:00:23;;;;;;;1.10;1.00;;;;;;;20.98;37.41;96085.28;5113377;28;20883;-60
2023/01/03 11:02:54;;;;;;;1.23;1.23;;;;;;;22.17;36.36;96144.88;5112974;28;20451;-60
2023/01/03 11:05:26;;;;;;;2.40;2.30;;;;;;;22.33;36.31;96137.81;5113176;28;20494;-60
2023/01/03 11:07:56;;;;;;;2.30;2.20;;;;;;;22.83;34.87;96143.34;5112658;28;20477;-59
2023/01/03 11:10:31;;;;;;;1.77;1.67;;;;;;;23.44;33.59;96064.16;5112882;28;20955;-60
2023/01/03 11:12:59;;;;;;;0.90;0.80;;;;;;;23.26;33.60;96109.50;5113201;28;20464;-60
2023/01/03 11:15:36;;;;;;;13.70;3.67;;;;;;;22.22;34.20;96131.19;5112945;28;20432;-61
2023/01/03 11:18:20;;;;;;;1.40;1.30;;;;;;;22.23;34.62;96079.56;5113175;28;20562;-61
2023/01/03 11:20:54;;;;;;;5.30;2.30;;;;;;;22.87;34.54;96114.56;5112969;28;20936;-61
2023/01/03 11:23:31;;;;;;;1.10;1.00;;;;;;;23.10;34.06;96118.50;5112537;28;20960;-60
2023/01/03 11:26:07;;;;;;;1.27;1.20;;;;;;;22.26;34.78;96105.94;5112544;28;20467;-61
2023/01/03 11:28:56;;;;;;;1.00;0.80;;;;;;;22.14;34.92;96090.41;5112697;28;20434;-61
2023/01/03 11:31:34;;;;;;;1.90;1.23;;;;;;;21.66;36.04;96107.94;5112380;28;20432;-60
2023/01/03 11:34:16;;;;;;;0.90;0.60;;;;;;;21.90;35.47;96056.97;5112532;28;20474;-61
2023/01/03 11:36:52;;;;;;;1.80;1.70;;;;;;;21.98;35.56;96042.66;5112635;28;20420;-62
2023/01/03 11:39:32;;;;;;;1.07;0.90;;;;;;;21.72;35.39;96082.41;5112490;28;20438;-61
2023/01/03 11:42:15;;;;;;;1.20;1.00;;;;;;;21.07;36.16;96013.34;5112425;28;20467;-61
2023/01/03 11:45:26;;;;;;;1.23;1.13;;;;;;;21.16;36.68;96032.97;5112691;28;20855;-61
2023/01/03 11:48:08;;;;;;;1.23;1.13;;;;;;;21.76;36.21;96088.72;5048325;28;20436;-61
2023/01/03 11:50:49;;;;;;;4.80;1.30;;;;;;;21.19;36.73;96040.44;5112168;28;20502;-61
2023/01/03 11:53:29;;;;;;;2.03;1.33;;;;;;;21.33;36.08;96086.09;5112298;28;20435;-61
2023/01/03 11:56:10;;;;;;;5.90;3.57;;;;;;;21.10;37.03;96077.38;5112367;28;20426;-61
2023/01/03 11:59:00;;;;;;;2.40;1.23;;;;;;;21.03;37.52;96078.94;5111887;28;20466;-61
2023/01/03 12:01:53;;;;;;;0.90;0.90;;;;;;;21.14;36.88;96029.81;5111734;28;20474;-61
2023/01/03 12:04:29;;;;;;;0.60;0.60;;;;;;;22.30;35.96;96065.53;5112395;28;20780;-61
2023/01/03 12:07:11;;;;;;;1.37;1.30;;;;;;;22.63;35.23;96043.00;5111907;28;20517;-61
2023/01/03 12:10:05;;;;;;;0.80;0.80;;;;;;;23.17;35.09;96064.69;5111985;28;20427;-61
2023/01/03 12:12:54;;;;;;;1.43;1.33;;;;;;;22.57;35.76;96065.06;5111971;28;20531;-61
2023/01/03 12:15:26;;;;;;;1.60;1.50;;;;;;;22.49;35.48;96041.63;5112020;28;20507;-61
2023/01/03 12:18:00;;;;;;;0.73;0.73;;;;;;;23.20;34.97;96054.00;5112249;28;20451;-60
2023/01/03 12:20:33;;;;;;;1.00;1.00;;;;;;;23.60;34.20;96031.88;5112182;28;20440;-62
2023/01/03 12:23:08;;;;;;;1.40;1.30;;;;;;;23.77;34.18;95999.19;5111991;28;20500;-61
2023/01/03 12:25:40;;;;;;;1.73;1.63;;;;;;;23.06;34.22;96050.78;5112001;28;20449;-61
2023/01/03 12:28:15;;;;;;;2.40;1.30;;;;;;;23.08;34.79;96047.75;5111638;28;20424;-61
2023/01/03 12:30:48;;;;;;;1.43;1.33;;;;;;;23.42;34.42;96049.41;5111725;28;20467;-61
2023/01/03 12:33:29;;;;;;;1.00;0.90;;;;;;;23.73;33.59;96042.38;5111486;28;20427;-61
2023/01/03 12:36:02;;;;;;;2.27;2.17;;;;;;;22.36;34.24;95984.03;5111383;28;20943;-60
2023/01/03 12:38:37;;;;;;;1.60;1.50;;;;;;;23.00;34.32;96033.16;5110959;28;20470;-60
2023/01/03 12:41:14;;;;;;;1.60;1.20;;;;;;;22.93;33.79;95986.16;5110878;28;20471;-62
2023/01/03 12:43:49;;;;;;;10.40;1.50;;;;;;;23.63;33.82;96028.50;5110846;28;20427;-62
2023/01/03 12:46:26;;;;;;;0.53;0.53;;;;;;;24.61;31.74;95991.09;5110715;28;20479;-61
2023/01/03 12:48:59;;;;;;;0.50;0.40;;;;;;;26.20;31.73;96005.53;5110949;28;20444;-62
2023/01/03 12:51:29;;;;;;;0.60;0.60;;;;;;;25.50;30.74;95988.22;5114552;28;20428;-61
2023/01/03 12:54:14;;;;;;;2.90;1.67;;;;;;;23.90;32.27;95981.84;5115950;28;20431;-59
2023/01/03 12:56:59;;;;;;;1.87;1.30;;;;;;;23.21;33.61;96014.22;5115515;28;20442;-60
2023/01/03 12:59:59;;;;;;;2.30;1.13;;;;;;;22.77;32.42;95996.00;5115573;28;20426;-60
2023/01/03 13:02:41;;;;;;;1.07;0.80;;;;;;;21.91;33.42;95888.50;5087766;28;20443;-60
2023/01/03 13:05:18;;;;;;;1.50;1.40;;;;;;;22.02;34.05;95979.59;5115188;28;20463;-60
2023/01/03 13:07:57;;;;;;;9.87;1.17;;;;;;;23.01;34.13;96025.84;5115204;28;20520;-60
2023/01/03 13:10:31;;;;;;;6.53;2.93;;;;;;;22.34;34.07;95988.16;5115369;28;20848;-60
2023/01/03 13:13:01;;;;;;;0.60;0.50;;;;;;;23.09;33.78;96020.38;5115179;28;20515;-61